Main page
METAR-TAF:

METAR-TAF

Airports :

Trieste / Ronchi dei Legionari, Italy

Trieste – Friuli Venezia Giulia Airport

latitude: 45-49N, longitude: 013-29E, elevation: 12 m

Current weather observation

The report was made 41 minutes ago, at 20:20 UTC
Wind 1 kt from the East/Southeast
Temperature 4°C
Humidity 87%
Pressure 1007 hPa
Visibility 10 km or more
Scattered clouds at a height of 3500 ft

METAR: LIPQ 202020Z 12001KT 9999 SCT035 04/02 Q1007

Time: 22:01 (21:01 UTC)

Forecast

The report was made 4 hours and 1 minutes ago, at 17:00 UTC
Forecast valid from 20 at 18 UTC to 21 at 18 UTC
Wind 5 kt from variable directions
Visibility 10 km or more
Scattered clouds at a height of 4000 ft
Temporary
from 20 at 21 UTC to 20 at 24 UTC
rain

TAF: LIPQ 201700Z 2018/2118 VRB05KT 9999 SCT040 TEMPO 2021/2024 RA

Weather observations and forecasts of more than 4000 airports (METAR and TAF reports).

The available stations are represented by yellow and red dots on the map.

Hover mouse over dot to see the name of the station.

Then click to see weather observations and forecasts.

To change the map : click on the green buttons with a black cross to zoom in, on the green button with a dash to zoom out, or on the green arrows for adjacent maps.


METAR-TAF: